sensor_id;sensor_type;location;lat;lon;timestamp;P1;durP1;ratioP1;P2;durP2;ratioP2
16973;SDS011;8603;46.944;7.412;2024-01-15T00:02:05;20.10;;;13.27;;
16973;SDS011;8603;46.944;7.412;2024-01-15T00:04:31;22.77;;;13.90;;
16973;SDS011;8603;46.944;7.412;2024-01-15T00:07:01;22.00;;;13.60;;
16973;SDS011;8603;46.944;7.412;2024-01-15T00:09:26;22.43;;;13.27;;
16973;SDS011;8603;46.944;7.412;2024-01-15T00:11:52;22.00;;;13.40;;
16973;SDS011;8603;46.944;7.412;2024-01-15T00:14:18;19.03;;;12.13;;
16973;SDS011;8603;46.944;7.412;2024-01-15T00:16:45;23.27;;;12.90;;
16973;SDS011;8603;46.944;7.412;2024-01-15T00:19:10;23.20;;;12.83;;
16973;SDS011;8603;46.944;7.412;2024-01-15T00:21:36;19.77;;;12.70;;
16973;SDS011;8603;46.944;7.412;2024-01-15T00:24:02;21.90;;;12.83;;
16973;SDS011;8603;46.944;7.412;2024-01-15T00:26:27;19.13;;;12.20;;
16973;SDS011;8603;46.944;7.412;2024-01-15T00:28:53;19.63;;;12.90;;
16973;SDS011;8603;46.944;7.412;2024-01-15T00:31:18;22.53;;;12.80;;
16973;SDS011;8603;46.944;7.412;2024-01-15T00:33:44;23.17;;;12.90;;
16973;SDS011;8603;46.944;7.412;2024-01-15T00:36:09;20.80;;;12.37;;
16973;SDS011;8603;46.944;7.412;2024-01-15T00:38:36;21.23;;;12.07;;
16973;SDS011;8603;46.944;7.412;2024-01-15T00:41:01;19.27;;;12.03;;
16973;SDS011;8603;46.944;7.412;2024-01-15T00:43:27;19.13;;;11.80;;
16973;SDS011;8603;46.944;7.412;2024-01-15T00:45:53;20.33;;;12.20;;
16973;SDS011;8603;46.944;7.412;2024-01-15T00:48:19;19.73;;;12.80;;
16973;SDS011;8603;46.944;7.412;2024-01-15T00:50:44;17.83;;;11.87;;
16973;SDS011;8603;46.944;7.412;2024-01-15T00:53:10;6.40;;;4.10;;
16973;SDS011;8603;46.944;7.412;2024-01-15T00:55:35;6.80;;;5.03;;
16973;SDS011;8603;46.944;7.412;2024-01-15T00:58:02;5.20;;;3.83;;
16973;SDS011;8603;46.944;7.412;2024-01-15T01:00:28;3.73;;;2.53;;
16973;SDS011;8603;46.944;7.412;2024-01-15T01:02:54;2.60;;;2.33;;
16973;SDS011;8603;46.944;7.412;2024-01-15T01:05:19;3.57;;;2.20;;
16973;SDS011;8603;46.944;7.412;2024-01-15T01:07:45;3.00;;;1.90;;
16973;SDS011;8603;46.944;7.412;2024-01-15T01:10:10;1.97;;;1.67;;
16973;SDS011;8603;46.944;7.412;2024-01-15T01:12:36;1.70;;;1.60;;
16973;SDS011;8603;46.944;7.412;2024-01-15T01:15:01;3.00;;;1.90;;
16973;SDS011;8603;46.944;7.412;2024-01-15T01:17:27;1.83;;;1.67;;
16973;SDS011;8603;46.944;7.412;2024-01-15T01:19:53;2.17;;;1.30;;
16973;SDS011;8603;46.944;7.412;2024-01-15T01:22:19;2.23;;;1.63;;
16973;SDS011;8603;46.944;7.412;2024-01-15T01:24:44;1.80;;;1.60;;
16973;SDS011;8603;46.944;7.412;2024-01-15T01:27:10;2.40;;;1.77;;
16973;SDS011;8603;46.944;7.412;2024-01-15T01:29:35;2.07;;;1.70;;
16973;SDS011;8603;46.944;7.412;2024-01-15T01:32:01;4.43;;;1.90;;
16973;SDS011;8603;46.944;7.412;2024-01-15T01:34:26;1.73;;;1.37;;
16973;SDS011;8603;46.944;7.412;2024-01-15T01:36:52;1.80;;;1.30;;
16973;SDS011;8603;46.944;7.412;2024-01-15T01:39:18;1.93;;;1.53;;
16973;SDS011;8603;46.944;7.412;2024-01-15T01:41:43;2.40;;;1.57;;
16973;SDS011;8603;46.944;7.412;2024-01-15T01:44:09;1.60;;;1.23;;
16973;SDS011;8603;46.944;7.412;2024-01-15T01:46:35;2.80;;;1.37;;
16973;SDS011;8603;46.944;7.412;2024-01-15T01:49:05;2.33;;;1.50;;
16973;SDS011;8603;46.944;7.412;2024-01-15T01:51:33;1.70;;;1.30;;
16973;SDS011;8603;46.944;7.412;2024-01-15T01:54:01;1.57;;;1.47;;
16973;SDS011;8603;46.944;7.412;2024-01-15T01:56:27;2.20;;;1.37;;
16973;SDS011;8603;46.944;7.412;2024-01-15T01:58:52;1.97;;;1.20;;
16973;SDS011;8603;46.944;7.412;2024-01-15T02:01:18;1.80;;;1.40;;
16973;SDS011;8603;46.944;7.412;2024-01-15T02:03:44;2.67;;;1.80;;
16973;SDS011;8603;46.944;7.412;2024-01-15T02:06:10;5.50;;;2.97;;
16973;SDS011;8603;46.944;7.412;2024-01-15T02:08:36;3.80;;;2.10;;
16973;SDS011;8603;46.944;7.412;2024-01-15T02:11:02;2.63;;;1.73;;
16973;SDS011;8603;46.944;7.412;2024-01-15T02:13:28;2.30;;;1.57;;
16973;SDS011;8603;46.944;7.412;2024-01-15T02:15:53;2.57;;;1.60;;
16973;SDS011;8603;46.944;7.412;2024-01-15T02:18:19;1.90;;;1.60;;
16973;SDS011;8603;46.944;7.412;2024-01-15T02:20:45;2.97;;;1.70;;
16973;SDS011;8603;46.944;7.412;2024-01-15T02:23:15;2.43;;;1.87;;
16973;SDS011;8603;46.944;7.412;2024-01-15T02:25:42;3.00;;;1.70;;
16973;SDS011;8603;46.944;7.412;2024-01-15T02:28:10;2.23;;;1.57;;
16973;SDS011;8603;46.944;7.412;2024-01-15T02:30:40;2.90;;;1.90;;
16973;SDS011;8603;46.944;7.412;2024-01-15T02:33:07;2.47;;;1.67;;
16973;SDS011;8603;46.944;7.412;2024-01-15T02:35:33;2.70;;;1.80;;
16973;SDS011;8603;46.944;7.412;2024-01-15T02:38:09;2.97;;;1.73;;
16973;SDS011;8603;46.944;7.412;2024-01-15T02:40:34;2.40;;;1.87;;
16973;SDS011;8603;46.944;7.412;2024-01-15T02:43:00;2.60;;;1.70;;
16973;SDS011;8603;46.944;7.412;2024-01-15T02:45:26;5.23;;;2.20;;
16973;SDS011;8603;46.944;7.412;2024-01-15T02:47:52;3.30;;;2.20;;
16973;SDS011;8603;46.944;7.412;2024-01-15T02:50:17;3.20;;;1.83;;
16973;SDS011;8603;46.944;7.412;2024-01-15T02:52:43;2.47;;;2.00;;
16973;SDS011;8603;46.944;7.412;2024-01-15T02:55:09;3.17;;;1.90;;
16973;SDS011;8603;46.944;7.412;2024-01-15T02:57:34;2.83;;;2.17;;
16973;SDS011;8603;46.944;7.412;2024-01-15T03:00:00;4.20;;;2.03;;
16973;SDS011;8603;46.944;7.412;2024-01-15T03:02:26;3.77;;;1.90;;
16973;SDS011;8603;46.944;7.412;2024-01-15T03:04:52;2.90;;;2.10;;
16973;SDS011;8603;46.944;7.412;2024-01-15T03:07:18;2.90;;;1.87;;
16973;SDS011;8603;46.944;7.412;2024-01-15T03:09:43;3.03;;;1.90;;
16973;SDS011;8603;46.944;7.412;2024-01-15T03:12:09;3.07;;;1.90;;
16973;SDS011;8603;46.944;7.412;2024-01-15T03:14:36;3.90;;;2.00;;
16973;SDS011;8603;46.944;7.412;2024-01-15T03:17:01;2.03;;;1.80;;
16973;SDS011;8603;46.944;7.412;2024-01-15T03:19:27;2.07;;;1.80;;
16973;SDS011;8603;46.944;7.412;2024-01-15T03:21:53;2.30;;;2.00;;
16973;SDS011;8603;46.944;7.412;2024-01-15T03:24:19;3.00;;;2.10;;
16973;SDS011;8603;46.944;7.412;2024-01-15T03:26:45;3.00;;;1.90;;
16973;SDS011;8603;46.944;7.412;2024-01-15T03:29:11;2.57;;;2.00;;
16973;SDS011;8603;46.944;7.412;2024-01-15T03:31:48;4.00;;;2.50;;
16973;SDS011;8603;46.944;7.412;2024-01-15T03:34:24;2.90;;;2.20;;
16973;SDS011;8603;46.944;7.412;2024-01-15T03:36:49;4.33;;;2.47;;
16973;SDS011;8603;46.944;7.412;2024-01-15T03:39:18;2.20;;;2.00;;
16973;SDS011;8603;46.944;7.412;2024-01-15T03:41:44;3.30;;;2.33;;
16973;SDS011;8603;46.944;7.412;2024-01-15T03:44:10;3.17;;;2.30;;
16973;SDS011;8603;46.944;7.412;2024-01-15T03:46:38;3.67;;;2.13;;
16973;SDS011;8603;46.944;7.412;2024-01-15T03:49:06;2.73;;;2.07;;
16973;SDS011;8603;46.944;7.412;2024-01-15T03:51:32;2.07;;;1.80;;
16973;SDS011;8603;46.944;7.412;2024-01-15T03:53:58;3.53;;;2.30;;
16973;SDS011;8603;46.944;7.412;2024-01-15T03:56:23;3.33;;;2.10;;
16973;SDS011;8603;46.944;7.412;2024-01-15T03:58:54;2.80;;;2.10;;
16973;SDS011;8603;46.944;7.412;2024-01-15T04:01:20;3.10;;;2.40;;
16973;SDS011;8603;46.944;7.412;2024-01-15T04:03:45;4.00;;;2.30;;
16973;SDS011;8603;46.944;7.412;2024-01-15T04:06:11;7.00;;;2.60;;
16973;SDS011;8603;46.944;7.412;2024-01-15T04:08:36;2.30;;;1.87;;
16973;SDS011;8603;46.944;7.412;2024-01-15T04:11:02;2.50;;;2.17;;
16973;SDS011;8603;46.944;7.412;2024-01-15T04:13:28;2.87;;;2.17;;
16973;SDS011;8603;46.944;7.412;2024-01-15T04:15:54;3.07;;;2.43;;
16973;SDS011;8603;46.944;7.412;2024-01-15T04:18:19;3.33;;;2.10;;
16973;SDS011;8603;46.944;7.412;2024-01-15T04:20:45;3.83;;;2.67;;
16973;SDS011;8603;46.944;7.412;2024-01-15T04:23:10;2.70;;;2.27;;
16973;SDS011;8603;46.944;7.412;2024-01-15T04:25:36;4.23;;;2.50;;
16973;SDS011;8603;46.944;7.412;2024-01-15T04:28:01;4.93;;;2.60;;
16973;SDS011;8603;46.944;7.412;2024-01-15T04:30:30;5.53;;;2.83;;
16973;SDS011;8603;46.944;7.412;2024-01-15T04:32:58;4.57;;;2.57;;
16973;SDS011;8603;46.944;7.412;2024-01-15T04:35:34;3.53;;;2.50;;
16973;SDS011;8603;46.944;7.412;2024-01-15T04:38:02;3.00;;;2.40;;
16973;SDS011;8603;46.944;7.412;2024-01-15T04:40:28;4.13;;;2.40;;
16973;SDS011;8603;46.944;7.412;2024-01-15T04:42:54;3.00;;;2.20;;
16973;SDS011;8603;46.944;7.412;2024-01-15T04:45:22;6.17;;;2.40;;
16973;SDS011;8603;46.944;7.412;2024-01-15T04:47:53;2.43;;;2.00;;
16973;SDS011;8603;46.944;7.412;2024-01-15T04:50:21;3.87;;;2.03;;
16973;SDS011;8603;46.944;7.412;2024-01-15T04:52:47;3.10;;;2.33;;
16973;SDS011;8603;46.944;7.412;2024-01-15T04:55:13;3.25;;;2.67;;
16973;SDS011;8603;46.944;7.412;2024-01-15T04:57:42;2.77;;;2.10;;
16973;SDS011;8603;46.944;7.412;2024-01-15T05:00:07;2.77;;;2.23;;
16973;SDS011;8603;46.944;7.412;2024-01-15T05:02:33;3.57;;;2.20;;
16973;SDS011;8603;46.944;7.412;2024-01-15T05:05:13;2.00;;;1.77;;
16973;SDS011;8603;46.944;7.412;2024-01-15T05:07:49;2.90;;;1.97;;
16973;SDS011;8603;46.944;7.412;2024-01-15T05:10:20;1.90;;;1.70;;
16973;SDS011;8603;46.944;7.412;2024-01-15T05:12:50;2.67;;;2.00;;
16973;SDS011;8603;46.944;7.412;2024-01-15T05:15:16;2.03;;;1.37;;
16973;SDS011;8603;46.944;7.412;2024-01-15T05:17:41;2.70;;;1.83;;
16973;SDS011;8603;46.944;7.412;2024-01-15T05:20:07;2.10;;;1.80;;
16973;SDS011;8603;46.944;7.412;2024-01-15T05:22:33;2.97;;;1.50;;
16973;SDS011;8603;46.944;7.412;2024-01-15T05:24:58;1.63;;;1.37;;
16973;SDS011;8603;46.944;7.412;2024-01-15T05:30:15;2.10;;;1.70;;
16973;SDS011;8603;46.944;7.412;2024-01-15T05:32:41;2.10;;;1.57;;
16973;SDS011;8603;46.944;7.412;2024-01-15T05:35:07;1.60;;;1.50;;
16973;SDS011;8603;46.944;7.412;2024-01-15T05:37:35;2.00;;;1.70;;
16973;SDS011;8603;46.944;7.412;2024-01-15T05:43:13;2.40;;;1.50;;
16973;SDS011;8603;46.944;7.412;2024-01-15T05:46:06;1.93;;;1.40;;
16973;SDS011;8603;46.944;7.412;2024-01-15T05:48:36;1.33;;;1.20;;
16973;SDS011;8603;46.944;7.412;2024-01-15T05:51:10;2.67;;;1.23;;
16973;SDS011;8603;46.944;7.412;2024-01-15T05:53:44;1.40;;;1.30;;
16973;SDS011;8603;46.944;7.412;2024-01-15T05:56:22;1.63;;;1.20;;
16973;SDS011;8603;46.944;7.412;2024-01-15T05:58:49;2.13;;;1.30;;
16973;SDS011;8603;46.944;7.412;2024-01-15T06:01:22;2.13;;;1.20;;
16973;SDS011;8603;46.944;7.412;2024-01-15T06:03:57;1.73;;;1.23;;
16973;SDS011;8603;46.944;7.412;2024-01-15T06:06:23;2.73;;;1.27;;
16973;SDS011;8603;46.944;7.412;2024-01-15T06:08:48;1.80;;;1.40;;
16973;SDS011;8603;46.944;7.412;2024-01-15T06:11:17;2.43;;;1.00;;
16973;SDS011;8603;46.944;7.412;2024-01-15T06:17:02;1.67;;;1.13;;
16973;SDS011;8603;46.944;7.412;2024-01-15T06:19:27;2.53;;;1.40;;
16973;SDS011;8603;46.944;7.412;2024-01-15T06:21:53;3.47;;;1.30;;
16973;SDS011;8603;46.944;7.412;2024-01-15T06:24:19;1.20;;;1.10;;
16973;SDS011;8603;46.944;7.412;2024-01-15T06:26:46;1.70;;;1.57;;
16973;SDS011;8603;46.944;7.412;2024-01-15T06:29:12;1.70;;;1.40;;
16973;SDS011;8603;46.944;7.412;2024-01-15T06:31:37;2.17;;;1.40;;
16973;SDS011;8603;46.944;7.412;2024-01-15T06:34:03;1.23;;;1.13;;
16973;SDS011;8603;46.944;7.412;2024-01-15T06:36:28;1.63;;;1.30;;
16973;SDS011;8603;46.944;7.412;2024-01-15T06:38:54;1.20;;;1.10;;
16973;SDS011;8603;46.944;7.412;2024-01-15T06:41:19;1.23;;;1.10;;
16973;SDS011;8603;46.944;7.412;2024-01-15T06:43:45;1.57;;;1.30;;
16973;SDS011;8603;46.944;7.412;2024-01-15T06:46:10;1.30;;;1.20;;
16973;SDS011;8603;46.944;7.412;2024-01-15T06:48:36;1.20;;;1.13;;
16973;SDS011;8603;46.944;7.412;2024-01-15T06:51:02;1.30;;;1.20;;
16973;SDS011;8603;46.944;7.412;2024-01-15T06:53:27;1.90;;;1.20;;
16973;SDS011;8603;46.944;7.412;2024-01-15T06:55:53;2.40;;;1.30;;
16973;SDS011;8603;46.944;7.412;2024-01-15T06:58:18;1.73;;;1.50;;
16973;SDS011;8603;46.944;7.412;2024-01-15T07:00:44;2.27;;;1.60;;
16973;SDS011;8603;46.944;7.412;2024-01-15T07:03:10;2.40;;;1.40;;
16973;SDS011;8603;46.944;7.412;2024-01-15T07:05:35;1.40;;;1.30;;
16973;SDS011;8603;46.944;7.412;2024-01-15T07:08:02;1.77;;;1.37;;
16973;SDS011;8603;46.944;7.412;2024-01-15T07:10:28;1.50;;;1.30;;
16973;SDS011;8603;46.944;7.412;2024-01-15T07:12:53;2.80;;;1.70;;
16973;SDS011;8603;46.944;7.412;2024-01-15T07:15:19;3.13;;;1.47;;
16973;SDS011;8603;46.944;7.412;2024-01-15T07:17:44;2.57;;;1.30;;
16973;SDS011;8603;46.944;7.412;2024-01-15T07:20:10;1.83;;;1.50;;
16973;SDS011;8603;46.944;7.412;2024-01-15T07:22:36;2.27;;;1.70;;
16973;SDS011;8603;46.944;7.412;2024-01-15T07:25:02;1.97;;;1.50;;
16973;SDS011;8603;46.944;7.412;2024-01-15T07:27:29;2.30;;;1.70;;
16973;SDS011;8603;46.944;7.412;2024-01-15T07:29:55;1.57;;;1.30;;
16973;SDS011;8603;46.944;7.412;2024-01-15T07:32:21;1.43;;;1.33;;
16973;SDS011;8603;46.944;7.412;2024-01-15T07:34:46;2.07;;;1.60;;
16973;SDS011;8603;46.944;7.412;2024-01-15T07:37:12;2.07;;;1.60;;
16973;SDS011;8603;46.944;7.412;2024-01-15T07:39:37;1.80;;;1.53;;
16973;SDS011;8603;46.944;7.412;2024-01-15T07:42:03;2.80;;;1.50;;
16973;SDS011;8603;46.944;7.412;2024-01-15T07:44:29;2.97;;;1.80;;
16973;SDS011;8603;46.944;7.412;2024-01-15T07:46:54;1.73;;;1.57;;
16973;SDS011;8603;46.944;7.412;2024-01-15T07:49:20;2.30;;;1.70;;
16973;SDS011;8603;46.944;7.412;2024-01-15T07:51:45;2.27;;;1.87;;
16973;SDS011;8603;46.944;7.412;2024-01-15T07:54:11;2.60;;;1.90;;
16973;SDS011;8603;46.944;7.412;2024-01-15T07:59:25;3.73;;;1.83;;
16973;SDS011;8603;46.944;7.412;2024-01-15T08:01:51;3.23;;;1.93;;
16973;SDS011;8603;46.944;7.412;2024-01-15T08:04:17;2.10;;;1.77;;
16973;SDS011;8603;46.944;7.412;2024-01-15T08:06:43;2.73;;;2.00;;
16973;SDS011;8603;46.944;7.412;2024-01-15T08:09:10;4.17;;;2.00;;
16973;SDS011;8603;46.944;7.412;2024-01-15T08:11:35;3.07;;;1.60;;
16973;SDS011;8603;46.944;7.412;2024-01-15T08:14:03;2.47;;;1.80;;
16973;SDS011;8603;46.944;7.412;2024-01-15T08:16:29;2.30;;;1.87;;
16973;SDS011;8603;46.944;7.412;2024-01-15T08:18:55;2.10;;;1.50;;
16973;SDS011;8603;46.944;7.412;2024-01-15T08:21:21;3.43;;;1.90;;
16973;SDS011;8603;46.944;7.412;2024-01-15T08:23:47;2.23;;;1.70;;
16973;SDS011;8603;46.944;7.412;2024-01-15T08:26:12;2.27;;;1.80;;
16973;SDS011;8603;46.944;7.412;2024-01-15T08:28:38;2.63;;;2.00;;
16973;SDS011;8603;46.944;7.412;2024-01-15T08:31:03;2.57;;;1.97;;
16973;SDS011;8603;46.944;7.412;2024-01-15T08:33:29;2.50;;;1.80;;
16973;SDS011;8603;46.944;7.412;2024-01-15T08:35:54;3.17;;;1.90;;
16973;SDS011;8603;46.944;7.412;2024-01-15T08:38:20;1.97;;;1.70;;
16973;SDS011;8603;46.944;7.412;2024-01-15T08:40:46;2.13;;;1.90;;
16973;SDS011;8603;46.944;7.412;2024-01-15T08:43:13;2.20;;;1.80;;
16973;SDS011;8603;46.944;7.412;2024-01-15T08:45:38;2.20;;;1.70;;
16973;SDS011;8603;46.944;7.412;2024-01-15T08:48:04;2.47;;;1.90;;
16973;SDS011;8603;46.944;7.412;2024-01-15T08:50:30;3.00;;;2.13;;
16973;SDS011;8603;46.944;7.412;2024-01-15T08:52:57;2.27;;;1.97;;
16973;SDS011;8603;46.944;7.412;2024-01-15T08:55:23;2.60;;;1.87;;
16973;SDS011;8603;46.944;7.412;2024-01-15T08:57:49;2.00;;;1.67;;
16973;SDS011;8603;46.944;7.412;2024-01-15T09:00:15;2.83;;;2.17;;
16973;SDS011;8603;46.944;7.412;2024-01-15T09:02:41;3.90;;;2.10;;
16973;SDS011;8603;46.944;7.412;2024-01-15T09:05:07;3.20;;;2.03;;
16973;SDS011;8603;46.944;7.412;2024-01-15T09:07:33;2.93;;;2.20;;
16973;SDS011;8603;46.944;7.412;2024-01-15T09:09:58;3.07;;;2.20;;
16973;SDS011;8603;46.944;7.412;2024-01-15T09:12:25;3.80;;;2.30;;
16973;SDS011;8603;46.944;7.412;2024-01-15T09:14:50;3.43;;;2.60;;
16973;SDS011;8603;46.944;7.412;2024-01-15T09:17:17;3.97;;;2.30;;
16973;SDS011;8603;46.944;7.412;2024-01-15T09:19:42;4.27;;;2.47;;
16973;SDS011;8603;46.944;7.412;2024-01-15T09:22:09;2.30;;;2.03;;
16973;SDS011;8603;46.944;7.412;2024-01-15T09:24:35;4.53;;;2.60;;
16973;SDS011;8603;46.944;7.412;2024-01-15T09:27:01;2.83;;;2.27;;
16973;SDS011;8603;46.944;7.412;2024-01-15T09:29:27;2.70;;;2.30;;
16973;SDS011;8603;46.944;7.412;2024-01-15T09:31:53;3.33;;;2.30;;
16973;SDS011;8603;46.944;7.412;2024-01-15T09:34:18;2.63;;;2.37;;
16973;SDS011;8603;46.944;7.412;2024-01-15T09:36:44;3.20;;;2.40;;
16973;SDS011;8603;46.944;7.412;2024-01-15T09:39:09;3.60;;;2.30;;
16973;SDS011;8603;46.944;7.412;2024-01-15T09:41:36;3.13;;;2.30;;
16973;SDS011;8603;46.944;7.412;2024-01-15T09:44:03;4.97;;;2.60;;
16973;SDS011;8603;46.944;7.412;2024-01-15T09:46:29;3.67;;;2.30;;
16973;SDS011;8603;46.944;7.412;2024-01-15T09:48:59;5.83;;;2.57;;
16973;SDS011;8603;46.944;7.412;2024-01-15T09:51:26;3.63;;;2.43;;
16973;SDS011;8603;46.944;7.412;2024-01-15T09:53:55;3.90;;;2.73;;
16973;SDS011;8603;46.944;7.412;2024-01-15T09:56:22;3.60;;;2.40;;
16973;SDS011;8603;46.944;7.412;2024-01-15T09:58:48;3.37;;;2.43;;
16973;SDS011;8603;46.944;7.412;2024-01-15T10:01:17;3.37;;;2.60;;
16973;SDS011;8603;46.944;7.412;2024-01-15T10:03:42;3.57;;;2.80;;
16973;SDS011;8603;46.944;7.412;2024-01-15T10:06:08;4.63;;;2.93;;
16973;SDS011;8603;46.944;7.412;2024-01-15T10:08:36;4.77;;;2.73;;
16973;SDS011;8603;46.944;7.412;2024-01-15T10:11:02;5.20;;;3.00;;
16973;SDS011;8603;46.944;7.412;2024-01-15T10:13:30;4.90;;;2.87;;
16973;SDS011;8603;46.944;7.412;2024-01-15T10:15:56;3.13;;;2.33;;
16973;SDS011;8603;46.944;7.412;2024-01-15T10:18:23;3.13;;;2.40;;
16973;SDS011;8603;46.944;7.412;2024-01-15T10:20:49;3.93;;;2.70;;
16973;SDS011;8603;46.944;7.412;2024-01-15T10:23:14;4.77;;;2.70;;
16973;SDS011;8603;46.944;7.412;2024-01-15T10:25:41;4.30;;;2.90;;
16973;SDS011;8603;46.944;7.412;2024-01-15T10:28:08;3.73;;;2.70;;
16973;SDS011;8603;46.944;7.412;2024-01-15T10:30:34;4.47;;;3.13;;
16973;SDS011;8603;46.944;7.412;2024-01-15T10:33:01;3.93;;;2.63;;
16973;SDS011;8603;46.944;7.412;2024-01-15T10:35:31;4.50;;;3.20;;
16973;SDS011;8603;46.944;7.412;2024-01-15T10:37:58;3.93;;;2.80;;
16973;SDS011;8603;46.944;7.412;2024-01-15T10:40:25;3.87;;;2.80;;
16973;SDS011;8603;46.944;7.412;2024-01-15T10:42:51;3.90;;;2.80;;
16973;SDS011;8603;46.944;7.412;2024-01-15T10:45:17;4.60;;;3.20;;
16973;SDS011;8603;46.944;7.412;2024-01-15T10:47:43;3.70;;;2.80;;
16973;SDS011;8603;46.944;7.412;2024-01-15T10:50:09;4.23;;;3.03;;
16973;SDS011;8603;46.944;7.412;2024-01-15T10:52:35;4.63;;;3.27;;
16973;SDS011;8603;46.944;7.412;2024-01-15T10:55:02;4.07;;;3.03;;
16973;SDS011;8603;46.944;7.412;2024-01-15T10:57:29;4.20;;;3.00;;
16973;SDS011;8603;46.944;7.412;2024-01-15T10:59:55;5.13;;;3.40;;
16973;SDS011;8603;46.944;7.412;2024-01-15T11:02:20;5.90;;;3.03;;
16973;SDS011;8603;46.944;7.412;2024-01-15T11:04:46;5.53;;;3.93;;
16973;SDS011;8603;46.944;7.412;2024-01-15T11:07:12;8.57;;;3.80;;
16973;SDS011;8603;46.944;7.412;2024-01-15T11:09:39;4.87;;;3.00;;
16973;SDS011;8603;46.944;7.412;2024-01-15T11:12:12;4.87;;;3.13;;
16973;SDS011;8603;46.944;7.412;2024-01-15T11:14:39;4.77;;;3.37;;
16973;SDS011;8603;46.944;7.412;2024-01-15T11:17:05;5.23;;;3.47;;
16973;SDS011;8603;46.944;7.412;2024-01-15T11:19:35;5.03;;;3.20;;
16973;SDS011;8603;46.944;7.412;2024-01-15T11:22:03;4.60;;;3.43;;
16973;SDS011;8603;46.944;7.412;2024-01-15T11:24:38;3.90;;;2.90;;
16973;SDS011;8603;46.944;7.412;2024-01-15T11:27:05;4.50;;;3.00;;
16973;SDS011;8603;46.944;7.412;2024-01-15T11:29:35;4.40;;;3.10;;
16973;SDS011;8603;46.944;7.412;2024-01-15T11:32:04;3.90;;;2.73;;
16973;SDS011;8603;46.944;7.412;2024-01-15T11:34:49;4.77;;;3.37;;
16973;SDS011;8603;46.944;7.412;2024-01-15T11:37:15;3.37;;;2.70;;
16973;SDS011;8603;46.944;7.412;2024-01-15T11:39:44;3.20;;;2.63;;
16973;SDS011;8603;46.944;7.412;2024-01-15T11:42:11;3.30;;;2.53;;
16973;SDS011;8603;46.944;7.412;2024-01-15T11:44:38;4.57;;;2.83;;
16973;SDS011;8603;46.944;7.412;2024-01-15T11:47:10;3.93;;;2.80;;
16973;SDS011;8603;46.944;7.412;2024-01-15T11:52:18;3.10;;;2.53;;
16973;SDS011;8603;46.944;7.412;2024-01-15T11:54:50;4.90;;;2.90;;
16973;SDS011;8603;46.944;7.412;2024-01-15T11:57:22;6.63;;;3.70;;
16973;SDS011;8603;46.944;7.412;2024-01-15T12:00:14;3.83;;;2.90;;
16973;SDS011;8603;46.944;7.412;2024-01-15T12:02:41;4.00;;;2.70;;
16973;SDS011;8603;46.944;7.412;2024-01-15T12:05:11;3.30;;;2.83;;
16973;SDS011;8603;46.944;7.412;2024-01-15T12:07:38;3.70;;;3.00;;
16973;SDS011;8603;46.944;7.412;2024-01-15T12:10:08;3.07;;;2.50;;
16973;SDS011;8603;46.944;7.412;2024-01-15T12:12:39;3.70;;;2.70;;
16973;SDS011;8603;46.944;7.412;2024-01-15T12:15:28;5.50;;;3.23;;
16973;SDS011;8603;46.944;7.412;2024-01-15T12:18:01;4.37;;;3.00;;
16973;SDS011;8603;46.944;7.412;2024-01-15T12:20:28;6.33;;;3.23;;
16973;SDS011;8603;46.944;7.412;2024-01-15T12:22:57;3.23;;;2.60;;
16973;SDS011;8603;46.944;7.412;2024-01-15T12:25:26;3.30;;;2.63;;
16973;SDS011;8603;46.944;7.412;2024-01-15T12:27:53;3.17;;;2.67;;
16973;SDS011;8603;46.944;7.412;2024-01-15T12:30:20;2.93;;;2.47;;
16973;SDS011;8603;46.944;7.412;2024-01-15T12:32:45;3.27;;;2.67;;
16973;SDS011;8603;46.944;7.412;2024-01-15T12:35:14;3.47;;;2.83;;
16973;SDS011;8603;46.944;7.412;2024-01-15T12:37:40;3.10;;;2.60;;
16973;SDS011;8603;46.944;7.412;2024-01-15T12:40:06;4.70;;;2.50;;
16973;SDS011;8603;46.944;7.412;2024-01-15T12:42:35;3.53;;;2.40;;
16973;SDS011;8603;46.944;7.412;2024-01-15T12:45:07;5.43;;;3.07;;
16973;SDS011;8603;46.944;7.412;2024-01-15T12:47:34;5.43;;;3.50;;
16973;SDS011;8603;46.944;7.412;2024-01-15T12:50:01;4.97;;;3.50;;
16973;SDS011;8603;46.944;7.412;2024-01-15T12:52:27;4.03;;;2.67;;
16973;SDS011;8603;46.944;7.412;2024-01-15T12:54:53;5.40;;;3.07;;
16973;SDS011;8603;46.944;7.412;2024-01-15T12:57:19;4.40;;;2.63;;
16973;SDS011;8603;46.944;7.412;2024-01-15T12:59:45;4.43;;;3.00;;
16973;SDS011;8603;46.944;7.412;2024-01-15T13:02:11;2.97;;;2.30;;
16973;SDS011;8603;46.944;7.412;2024-01-15T13:04:38;3.57;;;2.63;;
16973;SDS011;8603;46.944;7.412;2024-01-15T13:07:05;4.53;;;2.40;;
16973;SDS011;8603;46.944;7.412;2024-01-15T13:09:31;3.70;;;2.10;;
16973;SDS011;8603;46.944;7.412;2024-01-15T13:11:56;2.80;;;2.00;;
16973;SDS011;8603;46.944;7.412;2024-01-15T13:14:22;3.57;;;2.17;;
16973;SDS011;8603;46.944;7.412;2024-01-15T13:16:48;6.40;;;2.00;;
16973;SDS011;8603;46.944;7.412;2024-01-15T13:19:13;3.60;;;2.43;;
16973;SDS011;8603;46.944;7.412;2024-01-15T13:21:42;3.27;;;2.10;;
16973;SDS011;8603;46.944;7.412;2024-01-15T13:24:08;3.07;;;2.07;;
16973;SDS011;8603;46.944;7.412;2024-01-15T13:26:34;3.80;;;2.40;;
16973;SDS011;8603;46.944;7.412;2024-01-15T13:29:00;3.50;;;1.93;;
16973;SDS011;8603;46.944;7.412;2024-01-15T13:31:27;3.10;;;1.90;;
16973;SDS011;8603;46.944;7.412;2024-01-15T13:33:53;3.13;;;2.07;;
16973;SDS011;8603;46.944;7.412;2024-01-15T13:36:20;3.00;;;2.20;;
16973;SDS011;8603;46.944;7.412;2024-01-15T13:38:46;3.17;;;2.00;;
16973;SDS011;8603;46.944;7.412;2024-01-15T13:41:12;2.53;;;2.03;;
16973;SDS011;8603;46.944;7.412;2024-01-15T13:43:37;2.17;;;1.80;;
16973;SDS011;8603;46.944;7.412;2024-01-15T13:46:03;2.27;;;1.73;;
16973;SDS011;8603;46.944;7.412;2024-01-15T13:48:30;3.53;;;2.00;;
16973;SDS011;8603;46.944;7.412;2024-01-15T13:50:56;2.63;;;2.10;;
16973;SDS011;8603;46.944;7.412;2024-01-15T13:53:22;3.10;;;2.00;;
16973;SDS011;8603;46.944;7.412;2024-01-15T13:55:48;2.03;;;1.83;;
16973;SDS011;8603;46.944;7.412;2024-01-15T13:58:14;2.23;;;1.80;;
16973;SDS011;8603;46.944;7.412;2024-01-15T14:00:39;3.03;;;1.90;;
16973;SDS011;8603;46.944;7.412;2024-01-15T14:03:05;1.83;;;1.63;;
16973;SDS011;8603;46.944;7.412;2024-01-15T14:05:30;2.63;;;1.50;;
16973;SDS011;8603;46.944;7.412;2024-01-15T14:07:56;3.73;;;2.00;;
16973;SDS011;8603;46.944;7.412;2024-01-15T14:10:21;3.53;;;1.67;;
16973;SDS011;8603;46.944;7.412;2024-01-15T14:12:47;2.33;;;1.90;;
16973;SDS011;8603;46.944;7.412;2024-01-15T14:15:12;2.73;;;1.63;;
16973;SDS011;8603;46.944;7.412;2024-01-15T14:17:38;2.10;;;1.80;;
16973;SDS011;8603;46.944;7.412;2024-01-15T14:20:04;3.57;;;2.07;;
16973;SDS011;8603;46.944;7.412;2024-01-15T14:22:30;19.50;;;9.47;;
16973;SDS011;8603;46.944;7.412;2024-01-15T14:24:56;8.70;;;4.43;;
16973;SDS011;8603;46.944;7.412;2024-01-15T14:27:21;4.33;;;2.70;;
16973;SDS011;8603;46.944;7.412;2024-01-15T14:29:47;3.00;;;2.20;;
16973;SDS011;8603;46.944;7.412;2024-01-15T14:32:12;1.70;;;1.50;;
16973;SDS011;8603;46.944;7.412;2024-01-15T14:34:38;2.27;;;1.40;;
16973;SDS011;8603;46.944;7.412;2024-01-15T14:37:03;1.33;;;1.23;;
16973;SDS011;8603;46.944;7.412;2024-01-15T14:39:29;2.00;;;1.30;;
16973;SDS011;8603;46.944;7.412;2024-01-15T14:41:57;1.73;;;1.30;;
16973;SDS011;8603;46.944;7.412;2024-01-15T14:44:22;1.30;;;1.20;;
16973;SDS011;8603;46.944;7.412;2024-01-15T14:46:48;1.50;;;1.40;;
16973;SDS011;8603;46.944;7.412;2024-01-15T14:49:15;2.97;;;1.23;;
16973;SDS011;8603;46.944;7.412;2024-01-15T14:51:42;2.03;;;1.20;;
16973;SDS011;8603;46.944;7.412;2024-01-15T14:54:09;2.27;;;1.43;;
16973;SDS011;8603;46.944;7.412;2024-01-15T14:56:35;1.40;;;1.30;;
16973;SDS011;8603;46.944;7.412;2024-01-15T14:59:00;2.03;;;1.23;;
16973;SDS011;8603;46.944;7.412;2024-01-15T15:01:26;1.53;;;1.10;;
16973;SDS011;8603;46.944;7.412;2024-01-15T15:03:51;1.63;;;1.07;;
16973;SDS011;8603;46.944;7.412;2024-01-15T15:06:17;2.27;;;1.30;;
16973;SDS011;8603;46.944;7.412;2024-01-15T15:08:43;2.17;;;1.10;;
16973;SDS011;8603;46.944;7.412;2024-01-15T15:11:08;1.83;;;0.90;;
16973;SDS011;8603;46.944;7.412;2024-01-15T15:13:34;1.30;;;1.20;;